Terminal Aerodrome Forecast
Issued by NWS

Home | Current Version | Previous Version | Text Only | Print | Product List | Glossary On
Versions: 1 2 3 4 5 6 7 8 9 10 11 12 13
000
FTUS41 KPHI 251737
TAFPNE
TAF
KPNE 251737Z 2518/2618 07004KT 2SM BR VCSH OVC005
      TEMPO 2518/2522 1SM RA BR
     FM252300 VRB03KT 3SM BR VCSH BKN007 BKN015
     FM260300 32005KT P6SM OVC007
     FM260700 30009KT P6SM BKN025
     FM261000 30013KT P6SM SKC=

USA.gov is the U.S. government's official web portal to all federal, state and local government web resources and services.